Anaconda, Montana
Current Conditions -  °F | °C
As of 11:53 PM on Thursday 18 Dec 2014 (Local Time) from KBTM Reporting Station
Broken Clouds Broken Clouds  
Wind Chill: 12°   Ceiling: 6000
Heat Index: 19°   Visibility: 10mi
Dew Point: 15°   Wind: 5mph
Humidity: 85%   Direction: 130°SE
Pressure: 29.99"   Gusts: NA
Location:  46.13°N, 112.94°W
Report Text: KBTM 190653Z AUTO 13004KT 10SM FEW044 BKN060 M07/M09 A2999 RMK AO2 SLP213 T10721094 410331150
Loading
Personal Weather Stations






























Interactive Weather Map New forecast layout! Learn more

10-Day Weather Forecast

Advertisements
Track Severe Weather on mobile